createdAt,value
2023-07-07T00:08:20.113Z,60.02
2023-07-07T00:23:22.830Z,55.30
2023-07-07T00:38:26.882Z,57.99
2023-07-07T00:53:30.875Z,54.03
2023-07-07T01:08:35.421Z,58.88
2023-07-07T01:24:08.273Z,54.36
2023-07-07T01:39:12.105Z,58.30
2023-07-07T01:54:16.696Z,52.23
2023-07-07T02:09:21.676Z,58.43
2023-07-07T02:24:24.509Z,54.70
2023-07-07T02:39:27.734Z,59.20
2023-07-07T02:54:30.539Z,54.66
2023-07-07T03:09:33.261Z,59.55
2023-07-07T03:24:36.115Z,53.82
2023-07-07T03:39:38.894Z,56.73
2023-07-07T03:54:41.777Z,52.45
2023-07-07T04:09:44.494Z,53.36
2023-07-07T04:24:47.197Z,51.60
2023-07-07T04:39:50.227Z,47.89
2023-07-07T04:54:53.793Z,44.09
2023-07-07T05:09:57.109Z,40.53
2023-07-07T05:25:00.209Z,37.56
2023-07-07T05:40:03.485Z,35.96
2023-07-07T05:55:07.136Z,34.01
2023-07-07T06:10:13.518Z,32.83
2023-07-07T06:25:16.935Z,31.46
2023-07-07T06:40:19.801Z,26.94
2023-07-07T06:55:23.364Z,25.88
2023-07-07T07:10:26.196Z,27.57
2023-07-07T07:25:29.588Z,24.33
2023-07-07T07:40:33.052Z,27.84
2023-07-07T07:55:35.963Z,25.43
2023-07-07T08:10:41.103Z,26.74
2023-07-07T08:25:44.275Z,24.47
2023-07-07T08:40:51.845Z,26.24
2023-07-07T08:55:58.771Z,25.00
2023-07-07T09:11:12.858Z,24.71
2023-07-07T09:26:34.261Z,21.96
2023-07-07T09:42:08.203Z,21.66
2023-07-07T09:57:26.455Z,24.16
2023-07-07T10:12:35.195Z,25.39
2023-07-07T10:27:49.209Z,25.73
2023-07-07T10:42:54.740Z,24.98
2023-07-07T10:58:07.312Z,25.82
2023-07-07T11:13:34.261Z,27.46
2023-07-07T11:29:06.573Z,28.03
2023-07-07T11:44:24.878Z,29.57
2023-07-07T11:59:47.522Z,29.81
2023-07-07T12:14:55.896Z,30.13
2023-07-07T12:30:00.329Z,30.48
2023-07-07T12:45:40.546Z,29.39
2023-07-07T13:00:47.877Z,30.45
2023-07-07T13:15:51.740Z,31.03
2023-07-07T13:30:56.913Z,31.29
2023-07-07T13:46:13.846Z,30.97
2023-07-07T14:01:26.760Z,31.35
2023-07-07T14:16:39.317Z,30.95
2023-07-07T14:31:42.313Z,31.82
2023-07-07T14:46:45.145Z,31.55
2023-07-07T15:01:56.625Z,32.23
2023-07-07T15:16:59.831Z,32.64
2023-07-07T15:32:10.542Z,32.86
2023-07-07T15:47:22.261Z,32.97
2023-07-07T16:02:28.194Z,32.59
2023-07-07T16:17:31.358Z,32.96
2023-07-07T16:32:34.860Z,32.94
2023-07-07T16:47:37.648Z,33.14
2023-07-07T17:02:40.476Z,33.02
2023-07-07T17:17:43.587Z,32.97
2023-07-07T17:32:47.723Z,33.08
2023-07-07T17:47:50.733Z,33.14
2023-07-07T18:02:53.617Z,33.21
2023-07-07T18:18:00.242Z,35.33
2023-07-07T18:33:14.450Z,37.56
2023-07-07T18:48:17.151Z,38.81
2023-07-07T19:03:19.953Z,40.14
2023-07-07T19:18:37.009Z,42.52
2023-07-07T19:33:42.505Z,43.76
2023-07-07T19:48:46.066Z,45.41
2023-07-07T20:03:49.503Z,45.99
2023-07-07T20:18:54.440Z,48.84
2023-07-07T20:33:57.650Z,50.08
2023-07-07T20:49:02.760Z,51.99
2023-07-07T21:04:05.660Z,49.97
2023-07-07T21:19:12.862Z,51.92
2023-07-07T21:34:15.982Z,54.16
2023-07-07T21:49:19.192Z,53.59
2023-07-07T22:04:25.122Z,54.03
2023-07-07T22:19:28.359Z,53.91
2023-07-07T22:34:31.147Z,53.80
2023-07-07T22:49:33.853Z,53.85
2023-07-07T23:04:36.620Z,50.04
2023-07-07T23:19:39.361Z,52.13
2023-07-07T23:34:42.172Z,58.63
2023-07-07T23:49:44.887Z,51.35
